Time;durP1;ratioP1;P1;durP2;ratioP2;P2;SDS_P1;SDS_P2;PMS_P1;PMS_P2;Temp;Humidity;BMP_temperature;BMP_pressure;BME280_temperature;BME280_humidity;BME280_pressure;Samples;Min_cycle;Max_cycle;Signal;HPM_P1;HPM_P2
2023/05/13 00:00:08;;;;;;;4.40;4.10;;;;;;;12.70;100.00;96378.41;5072650;28;20194;-62
2023/05/13 00:02:34;;;;;;;4.97;4.57;;;;;;;12.73;100.00;96375.44;5072556;28;20202;-62
2023/05/13 00:05:01;;;;;;;4.63;4.23;;;;;;;12.76;100.00;96377.75;5072598;28;20241;-62
2023/05/13 00:07:27;;;;;;;4.73;4.33;;;;;;;12.72;100.00;96384.38;5071517;28;20213;-60
2023/05/13 00:09:54;;;;;;;5.10;4.70;;;;;;;12.73;100.00;96374.59;5073041;28;20226;-62
2023/05/13 00:12:20;;;;;;;5.00;4.60;;;;;;;12.70;100.00;96377.56;5073590;28;20263;-61
2023/05/13 00:14:47;;;;;;;4.63;4.23;;;;;;;12.73;100.00;96375.44;5074329;28;20213;-62
2023/05/13 00:17:15;;;;;;;6.47;5.23;;;;;;;12.70;100.00;96381.06;5073483;28;20546;-63
2023/05/13 00:19:41;;;;;;;4.70;4.30;;;;;;;12.72;100.00;96384.38;5073309;28;20564;-61
2023/05/13 00:22:07;;;;;;;6.23;4.73;;;;;;;12.71;100.00;96382.72;5072398;28;20238;-62
2023/05/13 00:24:34;;;;;;;4.93;4.53;;;;;;;12.65;100.00;96386.00;5072377;28;20284;-62
2023/05/13 00:27:01;;;;;;;5.40;4.90;;;;;;;12.58;100.00;96385.00;5072183;28;20237;-60
2023/05/13 00:29:27;;;;;;;5.53;5.13;;;;;;;12.58;100.00;96389.47;5071968;28;20226;-61
2023/05/13 00:31:53;;;;;;;5.40;4.90;;;;;;;12.59;100.00;96377.88;5072311;28;20206;-61
2023/05/13 00:34:21;;;;;;;6.37;5.37;;;;;;;12.61;100.00;96383.88;5071813;28;20206;-60
2023/05/13 00:36:48;;;;;;;5.80;5.40;;;;;;;12.59;100.00;96378.72;5070956;28;20214;-61
2023/05/13 00:39:14;;;;;;;5.40;5.00;;;;;;;12.61;100.00;96384.66;5071607;28;20214;-61
2023/05/13 00:41:40;;;;;;;6.07;5.50;;;;;;;12.61;100.00;96387.31;5071056;28;20689;-61
2023/05/13 00:44:07;;;;;;;6.20;5.63;;;;;;;12.54;100.00;96388.16;5075882;28;20252;-62
2023/05/13 00:46:34;;;;;;;7.50;5.30;;;;;;;12.54;100.00;96385.50;5074863;28;20214;-62
2023/05/13 00:49:00;;;;;;;6.63;6.03;;;;;;;12.63;100.00;96381.88;5071500;28;20227;-59
2023/05/13 00:51:31;;;;;;;6.60;6.00;;;;;;;12.57;100.00;96380.69;5071771;28;20693;-60
2023/05/13 00:53:59;;;;;;;7.17;6.27;;;;;;;12.56;100.00;96384.34;5071503;28;20206;-60
2023/05/13 00:56:25;;;;;;;7.40;5.87;;;;;;;12.57;100.00;96380.69;5070857;28;20206;-60
2023/05/13 00:58:52;;;;;;;7.43;5.67;;;;;;;12.58;100.00;96379.69;5072121;28;20287;-61
2023/05/13 01:01:34;;;;;;;6.83;6.17;;;;;;;12.53;100.00;96379.38;5071388;28;20206;-61
2023/05/13 01:04:11;;;;;;;5.73;5.10;;;;;;;12.56;100.00;96379.03;5072167;28;20206;-60
2023/05/13 01:06:47;;;;;;;7.10;6.47;;;;;;;12.53;100.00;96376.72;5071505;28;20530;-60
2023/05/13 01:09:20;;;;;;;6.90;6.30;;;;;;;12.49;100.00;96378.03;5071387;28;20548;-60
2023/05/13 01:11:49;;;;;;;6.47;5.93;;;;;;;12.53;100.00;96382.00;5072242;28;20242;-60
2023/05/13 01:14:20;;;;;;;6.73;6.13;;;;;;;12.55;100.00;96387.16;5070378;28;20288;-59
2023/05/13 01:16:53;;;;;;;6.70;5.97;;;;;;;12.54;100.00;96383.66;5070830;28;20205;-60
2023/05/13 01:19:26;;;;;;;7.17;6.47;;;;;;;12.55;100.00;96382.66;5069946;28;20202;-59
2023/05/13 01:21:55;;;;;;;6.80;6.10;;;;;;;12.63;100.00;96382.69;5070880;28;20245;-60
2023/05/13 01:24:21;;;;;;;6.40;5.80;;;;;;;12.52;100.00;96388.31;5071359;28;20207;-61
2023/05/13 01:26:48;;;;;;;6.60;6.00;;;;;;;12.53;100.00;96387.31;5070953;28;20207;-61
2023/05/13 01:29:14;;;;;;;7.10;6.47;;;;;;;12.58;100.00;96381.50;5070767;28;20214;-61
2023/05/13 01:31:42;;;;;;;7.33;6.60;;;;;;;12.54;100.00;96386.31;5070684;28;20206;-60
2023/05/13 01:34:09;;;;;;;6.73;6.23;;;;;;;12.63;100.00;96374.75;5071487;28;20264;-61
2023/05/13 01:36:35;;;;;;;7.10;6.40;;;;;;;12.59;100.00;96384.00;5071379;28;20198;-61
2023/05/13 01:39:03;;;;;;;6.60;6.00;;;;;;;12.63;100.00;96385.34;5071804;28;20202;-62
2023/05/13 01:41:30;;;;;;;7.27;6.17;;;;;;;12.65;100.00;96378.06;5072201;28;20199;-61
2023/05/13 01:43:57;;;;;;;6.80;6.20;;;;;;;12.60;100.00;96388.34;5070788;28;21342;-61
2023/05/13 01:46:23;;;;;;;6.90;6.30;;;;;;;12.62;100.00;96383.69;5071189;28;20694;-62
2023/05/13 01:48:50;;;;;;;7.60;6.90;;;;;;;12.58;100.00;96390.31;5070656;28;20646;-61
2023/05/13 01:51:16;;;;;;;7.10;6.43;;;;;;;12.56;100.00;96394.13;5070934;28;20574;-59
2023/05/13 01:53:43;;;;;;;6.83;6.10;;;;;;;12.56;100.00;96387.00;5071138;28;20221;-59
2023/05/13 01:56:11;;;;;;;7.33;6.63;;;;;;;12.56;100.00;96384.34;5071042;28;20198;-61
2023/05/13 01:58:37;;;;;;;7.03;6.43;;;;;;;12.54;100.00;96388.97;5070530;28;20206;-60
2023/05/13 02:01:04;;;;;;;7.00;6.40;;;;;;;12.57;100.00;96393.97;5071703;28;20211;-61
2023/05/13 02:03:30;;;;;;;8.27;6.50;;;;;;;12.56;100.00;96394.94;5070239;28;20636;-59
2023/05/13 02:05:56;;;;;;;6.57;6.07;;;;;;;12.52;100.00;96392.78;5070273;28;20206;-61
2023/05/13 02:08:24;;;;;;;6.53;5.97;;;;;;;12.52;100.00;96398.91;5070597;28;20239;-61
2023/05/13 02:10:55;;;;;;;7.43;6.83;;;;;;;12.53;100.00;96389.97;5070255;28;20621;-63
2023/05/13 02:13:22;;;;;;;7.53;6.83;;;;;;;12.59;100.00;96399.94;5070186;28;20199;-62
2023/05/13 02:15:49;;;;;;;7.53;6.93;;;;;;;12.54;100.00;96404.06;5070123;28;20218;-61
2023/05/13 02:18:15;;;;;;;7.23;6.63;;;;;;;12.55;100.00;96397.75;5074922;28;20237;-60
2023/05/13 02:20:42;;;;;;;7.47;6.83;;;;;;;12.58;100.00;96403.56;5073996;28;20207;-60
2023/05/13 02:23:08;;;;;;;7.63;6.90;;;;;;;12.55;100.00;96401.25;5072944;28;20295;-61
2023/05/13 02:25:35;;;;;;;7.30;6.70;;;;;;;12.60;100.00;96400.75;5075400;28;20198;-61
2023/05/13 02:28:01;;;;;;;7.90;7.30;;;;;;;12.54;100.00;96402.22;5070118;28;20195;-61
2023/05/13 02:30:29;;;;;;;7.30;6.60;;;;;;;12.54;100.00;96396.91;5071379;28;20229;-60
2023/05/13 02:32:57;;;;;;;8.50;7.80;;;;;;;12.50;100.00;96400.91;5074462;28;20202;-61
2023/05/13 02:35:28;;;;;;;7.10;6.50;;;;;;;12.51;100.00;96401.72;5073472;28;20203;-61
2023/05/13 02:37:54;;;;;;;8.10;7.47;;;;;;;12.47;100.00;96401.19;5073745;28;20655;-61
2023/05/13 02:40:21;;;;;;;7.60;7.00;;;;;;;12.50;100.00;96400.91;5074145;28;20210;-59
2023/05/13 02:42:47;;;;;;;7.50;6.83;;;;;;;12.50;100.00;96398.25;5073821;28;20275;-61
2023/05/13 02:45:14;;;;;;;7.10;6.53;;;;;;;12.49;100.00;96399.25;5073600;28;20194;-60
2023/05/13 02:47:42;;;;;;;7.27;6.57;;;;;;;12.46;100.00;96400.41;5073908;28;20705;-60
2023/05/13 02:50:11;;;;;;;7.50;6.80;;;;;;;12.51;100.00;96407.84;5073572;28;20230;-61
2023/05/13 02:52:38;;;;;;;7.97;7.23;;;;;;;12.51;100.00;96402.53;5073672;28;20202;-59
2023/05/13 02:55:07;;;;;;;7.27;6.53;;;;;;;12.50;100.00;96403.56;5073599;28;20206;-61
2023/05/13 02:57:33;;;;;;;7.60;6.90;;;;;;;12.47;100.00;96401.19;5073330;28;20222;-61
2023/05/13 03:00:00;;;;;;;7.13;6.60;;;;;;;12.51;100.00;96402.53;5073399;28;20543;-61
2023/05/13 03:02:26;;;;;;;7.37;6.73;;;;;;;12.52;100.00;96398.06;5076922;28;20202;-60
2023/05/13 03:04:55;;;;;;;7.23;6.53;;;;;;;12.54;100.00;96401.41;5081423;28;20198;-61
2023/05/13 03:07:21;;;;;;;7.00;6.40;;;;;;;12.53;100.00;96403.22;5083584;28;20199;-61
2023/05/13 03:09:48;;;;;;;7.07;6.47;;;;;;;12.58;100.00;96408.03;5073809;28;20590;-61
2023/05/13 03:12:14;;;;;;;7.77;7.17;;;;;;;12.59;100.00;96407.06;5073674;28;20287;-61
2023/05/13 03:14:43;;;;;;;7.33;6.80;;;;;;;12.51;100.00;96407.00;5072988;28;20220;-61
2023/05/13 03:17:09;;;;;;;7.10;6.50;;;;;;;12.52;100.00;96403.38;5072606;28;20237;-61
2023/05/13 03:19:37;;;;;;;8.47;7.57;;;;;;;12.49;100.00;96409.84;5072859;28;20209;-61
2023/05/13 03:22:06;;;;;;;7.43;6.83;;;;;;;12.51;100.00;96410.50;5072877;28;20304;-61
2023/05/13 03:24:32;;;;;;;7.30;6.70;;;;;;;12.51;100.00;96412.31;5073215;28;21335;-61
2023/05/13 03:26:59;;;;;;;7.40;6.80;;;;;;;12.50;100.00;96408.88;5072539;28;20651;-62
2023/05/13 03:29:26;;;;;;;7.80;7.10;;;;;;;12.57;100.00;96409.88;5072419;28;20233;-60
2023/05/13 03:31:52;;;;;;;7.20;6.60;;;;;;;12.56;100.00;96412.69;5072670;28;20205;-61
2023/05/13 03:34:19;;;;;;;7.47;6.77;;;;;;;12.53;100.00;96419.16;5072873;28;20586;-62
2023/05/13 03:36:45;;;;;;;8.00;7.30;;;;;;;12.57;100.00;96423.16;5072264;28;20297;-61
2023/05/13 03:39:15;;;;;;;8.03;7.23;;;;;;;12.58;100.00;96424.78;5073122;28;20234;-62
2023/05/13 03:41:43;;;;;;;7.80;7.20;;;;;;;12.57;100.00;96423.16;5071650;28;20266;-62
2023/05/13 03:44:09;;;;;;;7.87;7.23;;;;;;;12.55;100.00;96422.47;5072108;28;20524;-62
2023/05/13 03:46:36;;;;;;;8.07;7.37;;;;;;;12.60;100.00;96420.16;5072601;28;20207;-62
2023/05/13 03:49:02;;;;;;;8.03;7.27;;;;;;;12.57;100.00;96423.16;5073275;28;20198;-62
2023/05/13 03:51:29;;;;;;;7.87;7.27;;;;;;;12.54;100.00;96422.63;5073870;28;20260;-61
2023/05/13 03:53:55;;;;;;;8.00;7.30;;;;;;;12.50;100.00;96422.13;5073268;28;20222;-62
2023/05/13 03:56:23;;;;;;;7.83;7.20;;;;;;;12.52;100.00;96425.44;5072919;28;20233;-62
2023/05/13 03:58:49;;;;;;;7.90;7.10;;;;;;;12.49;100.00;96431.06;5072712;28;20198;-62
2023/05/13 04:01:16;;;;;;;7.50;6.90;;;;;;;12.52;100.00;96435.22;5072260;28;20221;-62
2023/05/13 04:03:44;;;;;;;8.00;7.30;;;;;;;12.49;100.00;96436.38;5072349;28;20202;-62
2023/05/13 04:06:12;;;;;;;7.93;7.30;;;;;;;12.53;100.00;96436.88;5072439;28;20208;-62
2023/05/13 04:08:39;;;;;;;7.67;6.87;;;;;;;12.55;100.00;96438.38;5071884;28;20643;-62
2023/05/13 04:11:06;;;;;;;8.60;7.83;;;;;;;12.58;100.00;96445.16;5071981;28;20528;-60
2023/05/13 04:13:34;;;;;;;7.93;7.13;;;;;;;12.55;100.00;96450.81;5071798;28;20222;-62
2023/05/13 04:16:01;;;;;;;7.27;6.67;;;;;;;12.51;100.00;96444.97;5071517;28;20213;-62
2023/05/13 04:18:29;;;;;;;7.73;6.77;;;;;;;12.47;100.00;96444.47;5071612;28;20603;-63
2023/05/13 04:20:55;;;;;;;7.60;7.00;;;;;;;12.50;100.00;96451.31;5071797;28;20195;-62
2023/05/13 04:23:22;;;;;;;8.13;7.33;;;;;;;12.40;100.00;96451.41;5070980;28;20217;-62
2023/05/13 04:25:50;;;;;;;7.13;6.63;;;;;;;12.44;100.00;96454.56;5071360;28;20206;-63
2023/05/13 04:28:17;;;;;;;7.30;6.60;;;;;;;12.41;100.00;96454.88;5071367;28;20226;-62
2023/05/13 04:30:45;;;;;;;7.27;6.57;;;;;;;12.43;100.00;96451.09;5071102;28;20702;-62
2023/05/13 04:33:11;;;;;;;7.27;6.67;;;;;;;12.51;100.00;96458.25;5071468;28;20194;-62
2023/05/13 04:35:37;;;;;;;7.03;6.53;;;;;;;12.47;100.00;96462.19;5071151;28;20194;-62
2023/05/13 04:38:06;;;;;;;7.40;6.80;;;;;;;12.49;100.00;96454.94;5071173;28;20198;-62
2023/05/13 04:40:32;;;;;;;7.07;6.57;;;;;;;12.48;100.00;96461.22;5071207;28;20202;-63
2023/05/13 04:42:58;;;;;;;7.20;6.57;;;;;;;12.47;100.00;96468.34;5070759;28;20206;-62
2023/05/13 04:45:25;;;;;;;7.80;7.10;;;;;;;12.40;100.00;96463.81;5070929;28;20218;-62
2023/05/13 04:47:53;;;;;;;7.07;6.53;;;;;;;12.43;100.00;96471.50;5071244;28;20205;-62
2023/05/13 04:50:19;;;;;;;7.03;6.50;;;;;;;12.47;100.00;96468.34;5070927;28;20237;-62
2023/05/13 04:52:46;;;;;;;7.80;7.20;;;;;;;12.48;100.00;96475.31;5071253;28;20202;-62
2023/05/13 04:55:13;;;;;;;7.27;6.73;;;;;;;12.45;100.00;96466.84;5071434;28;20297;-62
2023/05/13 04:57:39;;;;;;;6.77;6.27;;;;;;;12.46;100.00;96464.06;5071081;28;20203;-62
2023/05/13 05:00:08;;;;;;;7.37;6.67;;;;;;;12.48;100.00;96470.00;5071413;28;20213;-62
2023/05/13 05:02:34;;;;;;;7.73;7.13;;;;;;;12.49;100.00;96470.84;5071103;28;20206;-62
2023/05/13 05:05:02;;;;;;;7.80;6.97;;;;;;;12.51;100.00;96481.28;5070994;28;20639;-62
2023/05/13 05:07:29;;;;;;;7.73;7.03;;;;;;;12.48;100.00;96474.47;5071072;28;20203;-61
2023/05/13 05:09:55;;;;;;;7.23;6.73;;;;;;;12.53;100.00;96476.66;5071373;28;20210;-61
2023/05/13 05:12:22;;;;;;;8.40;7.70;;;;;;;12.57;100.00;96480.66;5070540;28;20221;-61
2023/05/13 05:14:48;;;;;;;8.10;7.30;;;;;;;12.56;100.00;96482.50;5070133;28;20211;-61
2023/05/13 05:17:15;;;;;;;7.43;6.83;;;;;;;12.56;100.00;96484.31;5071262;28;20195;-62
2023/05/13 05:19:41;;;;;;;7.80;7.20;;;;;;;12.50;100.00;96485.78;5071159;28;20206;-61
2023/05/13 05:22:09;;;;;;;6.83;6.33;;;;;;;12.53;100.00;96484.63;5073204;28;20292;-62
2023/05/13 05:24:36;;;;;;;7.53;6.83;;;;;;;12.51;100.00;96495.38;5072829;28;20206;-65
2023/05/13 05:27:02;;;;;;;7.47;6.87;;;;;;;12.51;100.00;96492.72;5074445;28;20548;-62
2023/05/13 05:29:29;;;;;;;7.37;6.80;;;;;;;12.52;100.00;96494.41;5075421;28;20670;-62
2023/05/13 05:31:55;;;;;;;7.17;6.57;;;;;;;12.51;100.00;96492.72;5077040;28;21014;-62
2023/05/13 05:34:22;;;;;;;7.53;6.90;;;;;;;12.48;100.00;96501.84;5073443;28;20202;-62
2023/05/13 05:36:48;;;;;;;7.90;7.27;;;;;;;12.48;100.00;96499.19;5071200;28;20217;-62
2023/05/13 05:39:16;;;;;;;7.33;6.73;;;;;;;12.51;100.00;96497.19;5071192;28;20221;-62
2023/05/13 05:41:42;;;;;;;7.67;7.00;;;;;;;12.51;100.00;96500.69;5070548;28;20206;-62
2023/05/13 05:44:12;;;;;;;7.80;7.10;;;;;;;12.54;100.00;96508.31;5070682;28;20221;-62
2023/05/13 05:46:38;;;;;;;7.20;6.60;;;;;;;12.54;100.00;96508.31;5070761;28;20203;-62
2023/05/13 05:49:07;;;;;;;7.30;6.70;;;;;;;12.54;100.00;96505.66;5070612;28;20230;-61
2023/05/13 05:51:33;;;;;;;8.03;7.23;;;;;;;12.53;100.00;96506.69;5070547;28;20218;-61
2023/05/13 05:53:59;;;;;;;7.53;6.93;;;;;;;12.56;100.00;96501.06;5070672;28;20213;-60
2023/05/13 05:56:30;;;;;;;7.43;6.83;;;;;;;12.63;100.00;96502.06;5070746;28;20202;-60
2023/05/13 05:58:56;;;;;;;7.83;7.13;;;;;;;12.61;100.00;96498.75;5070784;28;20213;-61
2023/05/13 06:01:23;;;;;;;7.40;6.80;;;;;;;12.59;100.00;96500.72;5070981;28;20194;-61
2023/05/13 06:03:49;;;;;;;7.27;6.57;;;;;;;12.60;100.00;96505.06;5070867;28;20194;-61
2023/05/13 06:06:15;;;;;;;6.80;6.23;;;;;;;12.61;100.00;96508.53;5074059;28;20198;-62
2023/05/13 06:08:42;;;;;;;7.03;6.43;;;;;;;12.60;100.00;96507.72;5074703;28;20614;-62
2023/05/13 06:11:08;;;;;;;7.20;6.50;;;;;;;12.63;100.00;96509.19;5074711;28;20233;-61
2023/05/13 06:13:37;;;;;;;7.23;6.53;;;;;;;12.65;100.00;96513.34;5075768;28;20217;-62
2023/05/13 06:16:04;;;;;;;6.53;6.00;;;;;;;12.71;100.00;96510.09;5073806;28;20202;-63
2023/05/13 06:18:30;;;;;;;7.70;7.10;;;;;;;12.71;100.00;96511.91;5074138;28;20627;-62
2023/05/13 06:20:57;;;;;;;7.20;6.60;;;;;;;12.71;100.00;96511.91;5075015;28;20206;-62
2023/05/13 06:23:23;;;;;;;7.13;6.50;;;;;;;12.69;100.00;96511.22;5074848;28;20206;-61
2023/05/13 06:25:49;;;;;;;7.00;6.13;;;;;;;12.65;100.00;96510.69;5074139;28;20217;-62
2023/05/13 06:28:16;;;;;;;7.20;6.60;;;;;;;12.73;100.00;96517.88;5073679;28;20836;-62
2023/05/13 06:30:44;;;;;;;6.70;6.20;;;;;;;12.74;100.00;96512.41;5073832;28;20241;-62
2023/05/13 06:33:11;;;;;;;7.10;6.47;;;;;;;12.73;100.00;96512.56;5074297;28;20714;-61
2023/05/13 06:35:38;;;;;;;6.90;6.30;;;;;;;12.79;100.00;96515.41;5074298;28;20294;-63
2023/05/13 06:38:04;;;;;;;7.10;6.50;;;;;;;12.75;100.00;96519.38;5074359;28;20198;-61
2023/05/13 06:40:31;;;;;;;6.43;5.93;;;;;;;12.76;100.00;96510.41;5074205;28;20194;-62
2023/05/13 06:42:57;;;;;;;6.67;6.17;;;;;;;12.77;100.00;96519.22;5073592;28;20213;-62
2023/05/13 06:45:24;;;;;;;7.33;6.00;;;;;;;12.87;100.00;96520.75;5074263;28;20202;-61
2023/05/13 06:47:53;;;;;;;6.93;6.43;;;;;;;12.88;100.00;96521.59;5073484;28;20194;-62
2023/05/13 06:50:20;;;;;;;6.17;5.67;;;;;;;12.89;100.00;96516.09;5074497;28;20225;-62
2023/05/13 06:52:47;;;;;;;7.23;6.63;;;;;;;12.86;100.00;96519.09;5074697;28;20339;-62
2023/05/13 06:55:15;;;;;;;6.80;6.20;;;;;;;12.93;100.00;96517.44;5076718;28;20249;-61
2023/05/13 06:57:44;;;;;;;6.43;5.93;;;;;;;12.91;100.00;96516.78;5077217;28;20722;-62
2023/05/13 07:00:11;;;;;;;6.23;5.73;;;;;;;12.92;100.00;96517.63;5074308;28;20214;-61
2023/05/13 07:02:38;;;;;;;6.60;6.10;;;;;;;12.94;100.00;96519.13;5073561;28;20233;-62
2023/05/13 07:05:06;;;;;;;7.13;6.40;;;;;;;12.90;100.00;96520.44;5073980;28;20297;-61
2023/05/13 07:07:33;;;;;;;7.20;6.50;;;;;;;12.94;100.00;96516.47;5072910;28;20654;-61
2023/05/13 07:10:00;;;;;;;6.97;6.37;;;;;;;12.98;100.00;96522.28;5073139;28;20210;-62
2023/05/13 07:12:26;;;;;;;7.23;6.50;;;;;;;12.90;100.00;96525.75;5073534;28;20241;-62
2023/05/13 07:14:53;;;;;;;6.33;5.83;;;;;;;12.95;100.00;96527.91;5073374;28;20261;-62
2023/05/13 07:17:19;;;;;;;7.07;6.53;;;;;;;13.01;100.00;96527.25;5072700;28;20228;-62
2023/05/13 07:19:46;;;;;;;7.07;6.47;;;;;;;12.94;100.00;96527.09;5072767;28;20938;-62
2023/05/13 07:22:14;;;;;;;6.53;6.00;;;;;;;13.05;100.00;96530.44;5073184;28;20560;-63
2023/05/13 07:24:40;;;;;;;6.17;5.67;;;;;;;13.10;100.00;96536.13;5072881;28;20635;-62
2023/05/13 07:27:08;;;;;;;6.80;6.30;;;;;;;13.19;100.00;96529.84;5073298;28;20210;-62
2023/05/13 07:29:34;;;;;;;6.83;6.33;;;;;;;13.15;100.00;96533.81;5072776;28;20696;-62
2023/05/13 07:32:04;;;;;;;7.33;6.63;;;;;;;13.14;100.00;96532.16;5073035;28;20555;-63
2023/05/13 07:34:31;;;;;;;6.50;6.00;;;;;;;13.12;100.00;96534.97;5072896;28;20639;-62
2023/05/13 07:36:57;;;;;;;7.47;6.77;;;;;;;13.11;100.00;96540.47;5072700;28;20202;-62
2023/05/13 07:39:25;;;;;;;6.93;6.37;;;;;;;13.12;100.00;96534.13;5073195;28;20237;-62
2023/05/13 07:41:52;;;;;;;6.67;5.97;;;;;;;13.10;100.00;96539.63;5072543;28;20203;-62
2023/05/13 07:44:18;;;;;;;6.20;5.63;;;;;;;13.16;100.00;96538.13;5073508;28;20252;-62
2023/05/13 07:46:45;;;;;;;6.63;6.10;;;;;;;13.14;100.00;96532.16;5078217;28;20224;-63
2023/05/13 07:49:12;;;;;;;6.47;5.93;;;;;;;13.17;100.00;96532.69;5083960;28;20205;-62
2023/05/13 07:51:40;;;;;;;6.97;6.00;;;;;;;13.18;100.00;96534.31;5087028;28;20222;-62
2023/05/13 07:54:06;;;;;;;7.00;6.50;;;;;;;13.13;100.00;96528.69;5084245;28;20202;-62
2023/05/13 07:56:34;;;;;;;6.77;6.20;;;;;;;13.16;100.00;96530.16;5084741;28;20206;-62
2023/05/13 07:59:01;;;;;;;10.80;9.90;;;;;;;13.19;100.00;96532.50;5073369;28;20221;-62
2023/05/13 08:01:27;;;;;;;7.13;6.53;;;;;;;13.24;100.00;96532.84;5073160;28;20195;-63
2023/05/13 08:03:54;;;;;;;6.57;6.07;;;;;;;13.24;100.00;96543.47;5073022;28;20203;-62
2023/05/13 08:06:20;;;;;;;7.03;6.47;;;;;;;13.23;100.00;96541.81;5072682;28;20647;-62
2023/05/13 08:08:47;;;;;;;6.43;5.83;;;;;;;13.34;100.00;96544.16;5073906;28;20198;-62
2023/05/13 08:11:13;;;;;;;6.20;5.67;;;;;;;13.29;100.00;96546.47;5075190;28;20572;-62
2023/05/13 08:13:41;;;;;;;6.50;5.87;;;;;;;13.25;100.00;96540.66;5071965;28;20643;-62
2023/05/13 08:16:07;;;;;;;6.17;5.57;;;;;;;13.18;100.00;96544.13;5075954;28;20804;-62
2023/05/13 08:18:34;;;;;;;6.10;5.60;;;;;;;13.16;100.00;96543.44;5081759;28;20207;-62
2023/05/13 08:21:00;;;;;;;5.90;5.40;;;;;;;13.18;100.00;96539.63;5080901;28;20198;-62
2023/05/13 08:23:27;;;;;;;5.93;5.53;;;;;;;13.11;100.00;96538.59;5075560;28;20199;-60
2023/05/13 08:25:54;;;;;;;6.17;5.67;;;;;;;13.16;100.00;96541.63;5073309;28;21451;-64
2023/05/13 08:28:20;;;;;;;7.63;6.13;;;;;;;13.22;100.00;96545.44;5082631;28;20210;-62
2023/05/13 08:30:48;;;;;;;5.90;5.50;;;;;;;13.26;100.00;96536.16;5072179;28;20202;-62
2023/05/13 08:33:14;;;;;;;6.33;5.80;;;;;;;13.35;100.00;96538.69;5071862;28;20221;-63
2023/05/13 08:35:41;;;;;;;6.87;6.30;;;;;;;13.30;100.00;96545.47;5072294;28;20205;-62
2023/05/13 08:38:07;;;;;;;6.63;6.13;;;;;;;13.29;100.00;96546.47;5072165;28;20217;-62
2023/05/13 08:40:34;;;;;;;6.50;6.00;;;;;;;13.26;100.00;96542.31;5072213;28;20562;-62
2023/05/13 08:43:01;;;;;;;6.50;5.90;;;;;;;13.23;100.00;96542.66;5071380;28;20203;-62
2023/05/13 08:45:29;;;;;;;6.00;5.50;;;;;;;13.24;100.00;96546.13;5071964;28;20203;-61
2023/05/13 08:48:00;;;;;;;6.67;6.17;;;;;;;13.22;100.00;96546.28;5071273;28;20276;-61
2023/05/13 08:50:27;;;;;;;6.33;5.83;;;;;;;13.24;100.00;96551.44;5071966;28;20203;-62
2023/05/13 08:52:54;;;;;;;6.23;5.73;;;;;;;13.26;100.00;96552.94;5071185;28;20710;-62
2023/05/13 08:55:21;;;;;;;6.00;5.60;;;;;;;13.25;100.00;96551.25;5071882;28;20290;-62
2023/05/13 08:57:48;;;;;;;5.90;5.40;;;;;;;13.32;100.00;96551.47;5070592;28;20639;-63
2023/05/13 09:00:15;;;;;;;5.97;5.47;;;;;;;13.33;100.00;96553.94;5072001;28;20210;-62
2023/05/13 09:02:42;;;;;;;6.63;6.10;;;;;;;13.34;100.00;96549.47;5071170;28;20208;-61
2023/05/13 09:05:10;;;;;;;6.50;6.00;;;;;;;13.40;100.00;96559.44;5071727;28;20547;-62
2023/05/13 09:07:37;;;;;;;6.47;5.87;;;;;;;13.48;100.00;96556.81;5071175;28;20210;-62
2023/05/13 09:10:04;;;;;;;6.00;5.50;;;;;;;13.58;100.00;96554.84;5071338;28;20213;-62
2023/05/13 09:12:47;;;;;;;6.13;5.57;;;;;;;13.65;100.00;96555.84;5071027;28;21439;-62
2023/05/13 09:15:16;;;;;;;6.10;5.50;;;;;;;13.66;100.00;96556.69;5071542;28;20202;-63
2023/05/13 09:17:44;;;;;;;6.20;5.70;;;;;;;13.75;100.00;96553.03;5070978;28;20210;-62
2023/05/13 09:20:14;;;;;;;6.37;5.27;;;;;;;13.90;100.00;96551.38;5071010;28;20631;-61
2023/05/13 09:22:42;;;;;;;6.17;5.70;;;;;;;13.97;100.00;96552.38;5070828;28;20240;-60
2023/05/13 09:25:11;;;;;;;6.03;5.53;;;;;;;14.06;100.00;96555.88;5070714;28;20289;-62
2023/05/13 09:27:39;;;;;;;5.93;5.27;;;;;;;14.12;100.00;96549.88;5071172;28;20218;-62
2023/05/13 09:30:07;;;;;;;6.20;5.70;;;;;;;14.08;100.00;96554.72;5071376;28;20750;-63
2023/05/13 09:32:33;;;;;;;7.43;6.00;;;;;;;14.12;100.00;96550.72;5071448;28;20214;-62
2023/05/13 09:35:09;;;;;;;6.30;5.70;;;;;;;14.34;100.00;96559.88;5071959;28;20202;-63
2023/05/13 09:37:37;;;;;;;6.63;6.13;;;;;;;14.29;100.00;96556.84;5073912;28;20218;-63
2023/05/13 09:40:05;;;;;;;6.23;5.70;;;;;;;14.31;100.00;96565.50;5073461;28;20202;-63
2023/05/13 09:42:31;;;;;;;6.87;6.37;;;;;;;14.28;100.00;96560.50;5074340;28;20209;-61
2023/05/13 09:45:05;;;;;;;6.33;5.90;;;;;;;14.42;100.00;96554.53;5074134;28;20236;-63
2023/05/13 09:47:31;;;;;;;6.23;5.83;;;;;;;14.41;100.00;96556.38;5072751;28;20207;-65
2023/05/13 09:49:58;;;;;;;7.00;6.40;;;;;;;14.61;100.00;96566.63;5073582;28;20229;-61
2023/05/13 09:52:24;;;;;;;5.83;5.43;;;;;;;14.78;100.00;96560.28;5075018;28;20230;-62
2023/05/13 09:54:55;;;;;;;6.33;5.53;;;;;;;14.68;100.00;96563.13;5075154;28;20761;-63
2023/05/13 09:57:22;;;;;;;5.20;4.82;;;;;;;14.84;100.00;96563.06;5076506;28;20214;-62
2023/05/13 09:59:48;;;;;;;5.83;5.33;;;;;;;14.75;100.00;96561.44;5074870;28;20198;-64
2023/05/13 10:02:16;;;;;;;5.80;5.40;;;;;;;14.80;100.00;96560.94;5075616;28;20289;-62
2023/05/13 10:04:43;;;;;;;7.25;6.65;;;;;;;15.04;100.00;96566.19;5071762;28;20206;-63
2023/05/13 10:07:12;;;;;;;5.30;4.90;;;;;;;15.19;100.00;96563.63;5072023;28;20207;-61
2023/05/13 10:09:39;;;;;;;4.88;4.57;;;;;;;15.31;100.00;96564.88;5083654;28;20194;-62
2023/05/13 10:12:08;;;;;;;4.82;4.50;;;;;;;15.33;100.00;96563.72;5089119;28;20230;-62
2023/05/13 10:14:35;;;;;;;5.40;5.00;;;;;;;15.24;99.39;96566.59;5088547;28;20229;-61
2023/05/13 10:17:02;;;;;;;4.90;4.60;;;;;;;15.36;100.00;96568.72;5076325;28;20198;-62
2023/05/13 10:19:31;;;;;;;4.70;4.40;;;;;;;15.56;100.00;96565.63;5072111;28;20221;-62
2023/05/13 10:21:58;;;;;;;5.10;4.70;;;;;;;15.49;98.36;96557.50;5073189;28;20218;-62
2023/05/13 10:24:25;;;;;;;5.10;4.80;;;;;;;15.47;98.77;96563.97;5070781;28;20221;-61
2023/05/13 10:26:52;;;;;;;4.63;4.22;;;;;;;15.21;97.67;96558.94;5070511;28;20198;-62
2023/05/13 10:29:22;;;;;;;4.70;4.40;;;;;;;14.99;97.41;96565.03;5070427;28;20206;-62
2023/05/13 10:31:49;;;;;;;5.72;5.25;;;;;;;14.91;98.66;96565.91;5070513;28;20226;-62
2023/05/13 10:34:16;;;;;;;4.53;4.23;;;;;;;15.06;100.00;96568.66;5070001;28;20615;-61
2023/05/13 10:36:53;;;;;;;4.72;4.43;;;;;;;15.07;98.52;96567.66;5069615;28;20535;-61
2023/05/13 10:39:38;;;;;;;4.40;4.10;;;;;;;15.05;98.55;96565.19;5070573;28;20213;-62
2023/05/13 10:42:36;;;;;;;4.63;4.32;;;;;;;15.24;99.92;96564.75;5070170;28;20692;-60
2023/05/13 10:45:05;;;;;;;5.43;5.03;;;;;;;15.39;100.00;96568.34;5070267;28;20243;-61
2023/05/13 10:47:32;;;;;;;4.82;4.53;;;;;;;15.52;100.00;96567.00;5070773;28;20234;-62
2023/05/13 10:50:03;;;;;;;5.60;5.20;;;;;;;15.56;96.70;96570.94;5069502;28;20272;-62
2023/05/13 10:52:41;;;;;;;5.53;5.13;;;;;;;15.49;96.04;96567.31;5073641;28;20210;-61
2023/05/13 10:55:15;;;;;;;5.18;4.80;;;;;;;15.47;95.70;96559.50;5074456;28;20260;-61
2023/05/13 10:57:42;;;;;;;5.28;4.78;;;;;;;15.35;97.92;96555.53;5073652;28;20238;-61
2023/05/13 11:00:19;;;;;;;4.90;4.60;;;;;;;15.45;100.00;96564.16;5073972;28;20210;-62
2023/05/13 11:02:45;;;;;;;5.05;4.65;;;;;;;15.22;96.26;96566.78;5073849;28;20194;-61
2023/05/13 11:05:19;;;;;;;6.13;4.47;;;;;;;15.24;96.85;96553.25;5073610;28;20206;-62
2023/05/13 11:07:55;;;;;;;4.83;4.43;;;;;;;15.44;96.17;96559.84;5072658;28;20637;-62
2023/05/13 11:10:26;;;;;;;4.60;4.30;;;;;;;15.54;97.19;96565.81;5073668;28;20210;-60
2023/05/13 11:13:19;;;;;;;4.80;4.40;;;;;;;15.48;95.44;96566.47;5073068;28;20219;-62
2023/05/13 11:15:50;;;;;;;4.97;4.68;;;;;;;15.61;94.83;96556.09;5073148;28;20191;-62
2023/05/13 11:18:17;;;;;;;4.63;4.32;;;;;;;15.62;92.92;96555.09;5073385;28;20198;-63
2023/05/13 11:20:47;;;;;;;4.18;3.88;;;;;;;15.80;93.30;96549.50;5073282;28;20213;-60
2023/05/13 11:23:18;;;;;;;3.95;3.70;;;;;;;16.01;92.81;96551.50;5073323;28;20400;-61
2023/05/13 11:25:45;;;;;;;4.38;3.97;;;;;;;16.37;91.13;96547.16;5073167;28;20248;-62
2023/05/13 11:28:15;;;;;;;4.22;3.92;;;;;;;16.44;86.94;96548.09;5072984;28;20206;-62